createdAt,value
2018-05-23T00:00:17.487Z,48.23
2018-05-23T00:01:17.430Z,48.25
2018-05-23T00:02:17.372Z,47.87
2018-05-23T00:03:17.311Z,47.97
2018-05-23T00:04:17.252Z,48.54
2018-05-23T00:05:17.193Z,48.54
2018-05-23T00:06:17.131Z,48.54
2018-05-23T00:07:17.074Z,48.54
2018-05-23T00:08:17.013Z,48.52
2018-05-23T00:09:16.954Z,48.43
2018-05-23T00:10:16.901Z,48.61
2018-05-23T00:11:16.837Z,48.33
2018-05-23T00:12:16.777Z,48.81
2018-05-23T00:13:16.716Z,48.52
2018-05-23T00:14:16.656Z,48.71
2018-05-23T00:15:16.599Z,48.81
2018-05-23T00:16:16.537Z,48.81
2018-05-23T00:17:16.479Z,48.90
2018-05-23T00:18:16.422Z,48.90
2018-05-23T00:19:16.358Z,49.00
2018-05-23T00:20:16.299Z,49.10
2018-05-23T00:21:16.238Z,49.10
2018-05-23T00:22:16.180Z,49.29
2018-05-23T00:23:16.120Z,49.19
2018-05-23T00:24:16.061Z,49.48
2018-05-23T00:25:16.005Z,49.67
2018-05-23T00:26:15.938Z,49.87
2018-05-23T00:27:15.881Z,49.67
2018-05-23T00:28:15.831Z,50.05
2018-05-23T00:29:15.763Z,49.87
2018-05-23T00:30:15.705Z,49.87
2018-05-23T00:31:15.641Z,49.96
2018-05-23T00:32:15.582Z,49.77
2018-05-23T00:33:15.523Z,49.96
2018-05-23T00:34:15.465Z,50.05
2018-05-23T00:35:15.408Z,50.25
2018-05-23T00:36:15.346Z,50.15
2018-05-23T00:37:15.289Z,50.15
2018-05-23T00:38:15.224Z,50.63
2018-05-23T00:39:15.165Z,50.54
2018-05-23T00:40:15.105Z,50.34
2018-05-23T00:41:15.043Z,50.34
2018-05-23T00:42:14.988Z,50.34
2018-05-23T00:43:14.928Z,50.82
2018-05-23T00:44:14.867Z,50.73
2018-05-23T00:45:14.815Z,50.73
2018-05-23T00:46:14.748Z,50.54
2018-05-23T00:47:14.687Z,50.61
2018-05-23T00:48:14.642Z,50.54
2018-05-23T00:49:14.569Z,51.02
2018-05-23T00:50:14.653Z,51.21
2018-05-23T00:51:14.445Z,50.90
2018-05-23T00:52:14.383Z,51.21
2018-05-23T00:53:14.332Z,50.90
2018-05-23T00:54:14.270Z,51.28
2018-05-23T00:55:14.214Z,51.37
2018-05-23T00:56:14.151Z,51.18
2018-05-23T00:57:14.090Z,51.09
2018-05-23T00:58:14.029Z,51.67
2018-05-23T00:59:13.969Z,51.47
2018-05-23T01:00:13.909Z,51.37
2018-05-23T01:01:13.849Z,51.47
2018-05-23T01:02:13.798Z,51.28
2018-05-23T01:03:13.732Z,51.95
2018-05-23T01:04:13.675Z,52.34
2018-05-23T01:05:13.608Z,52.14
2018-05-23T01:06:13.553Z,52.24
2018-05-23T01:07:13.491Z,51.95
2018-05-23T01:08:13.435Z,52.34
2018-05-23T01:09:13.386Z,52.62
2018-05-23T01:10:13.310Z,52.43
2018-05-23T01:11:13.250Z,52.53
2018-05-23T01:12:13.190Z,52.43
2018-05-23T01:13:13.134Z,52.62
2018-05-23T01:14:13.076Z,52.43
2018-05-23T01:15:13.013Z,52.91
2018-05-23T01:16:12.954Z,52.91
2018-05-23T01:17:12.916Z,52.81
2018-05-23T01:18:12.837Z,53.11
2018-05-23T01:19:12.771Z,53.11
2018-05-23T01:20:12.713Z,53.49
2018-05-23T01:21:12.653Z,53.58
2018-05-23T01:22:12.589Z,53.58
2018-05-23T01:23:12.532Z,53.49
2018-05-23T01:24:12.469Z,53.58
2018-05-23T01:25:12.410Z,54.06
2018-05-23T01:26:12.351Z,53.97
2018-05-23T01:27:12.291Z,54.16
2018-05-23T01:28:12.233Z,54.45
2018-05-23T01:29:12.171Z,54.93
2018-05-23T01:30:12.111Z,54.55
2018-05-23T01:31:12.052Z,54.42
2018-05-23T01:32:11.983Z,54.71
2018-05-23T01:33:11.932Z,54.83
2018-05-23T01:34:11.869Z,55.19
2018-05-23T01:35:11.811Z,55.47
2018-05-23T01:36:11.749Z,55.19
2018-05-23T01:37:11.687Z,55.77
2018-05-23T01:38:11.634Z,55.67
2018-05-23T01:39:11.572Z,55.96
2018-05-23T01:40:11.509Z,55.57
2018-05-23T01:41:11.449Z,55.86
2018-05-23T01:42:11.387Z,56.15
2018-05-23T01:43:11.327Z,56.34
2018-05-23T01:44:11.269Z,56.24
2018-05-23T01:45:11.209Z,56.24
2018-05-23T01:46:11.146Z,56.63
2018-05-23T01:47:11.090Z,56.73
2018-05-23T01:48:11.027Z,56.34
2018-05-23T01:49:10.967Z,56.73
2018-05-23T01:50:10.903Z,56.44
2018-05-23T01:51:10.844Z,56.53
2018-05-23T01:52:10.788Z,56.63
2018-05-23T01:53:10.728Z,56.63
2018-05-23T01:54:10.662Z,56.44
2018-05-23T01:55:10.604Z,57.01
2018-05-23T01:56:10.543Z,57.11
2018-05-23T01:57:10.482Z,56.73
2018-05-23T01:58:10.420Z,57.40
2018-05-23T01:59:10.362Z,57.30
2018-05-23T02:00:10.303Z,57.21
2018-05-23T02:01:10.240Z,57.40
2018-05-23T02:02:10.179Z,57.28
2018-05-23T02:03:10.119Z,57.68
2018-05-23T02:04:10.057Z,57.75
2018-05-23T02:05:10.000Z,57.56
2018-05-23T02:06:09.936Z,57.37
2018-05-23T02:07:09.877Z,57.56
2018-05-23T02:08:09.817Z,57.95
2018-05-23T02:09:09.758Z,57.75
2018-05-23T02:10:09.701Z,57.56
2018-05-23T02:11:09.637Z,58.14
2018-05-23T02:12:09.576Z,57.95
2018-05-23T02:13:09.517Z,58.04
2018-05-23T02:14:09.453Z,58.23
2018-05-23T02:15:09.394Z,58.14
2018-05-23T02:16:09.332Z,57.95
2018-05-23T02:17:09.275Z,58.23
2018-05-23T02:18:09.217Z,58.23
2018-05-23T02:19:09.151Z,58.52
2018-05-23T02:20:09.093Z,58.42
2018-05-23T02:21:09.032Z,58.33
2018-05-23T02:22:08.973Z,59.00
2018-05-23T02:23:08.910Z,58.81
2018-05-23T02:24:08.848Z,58.71
2018-05-23T02:25:08.798Z,58.71
2018-05-23T02:26:08.724Z,58.52
2018-05-23T02:27:08.665Z,58.42
2018-05-23T02:28:08.607Z,58.62
2018-05-23T02:29:08.544Z,58.52
2018-05-23T02:30:08.484Z,59.09
2018-05-23T02:31:08.424Z,59.29
2018-05-23T02:32:08.369Z,58.71
2018-05-23T02:33:08.302Z,58.91
2018-05-23T02:34:08.240Z,59.00
2018-05-23T02:35:08.179Z,59.48
2018-05-23T02:36:08.119Z,59.48
2018-05-23T02:37:08.058Z,59.19
2018-05-23T02:38:07.999Z,59.09
2018-05-23T02:39:07.946Z,59.77
2018-05-23T02:40:07.884Z,59.67
2018-05-23T02:41:07.817Z,59.38
2018-05-23T02:42:07.761Z,59.29
2018-05-23T02:43:07.702Z,59.77
2018-05-23T02:44:07.634Z,59.86
2018-05-23T02:45:07.576Z,60.05
2018-05-23T02:46:07.516Z,59.93
2018-05-23T02:47:07.487Z,59.83
2018-05-23T02:48:07.388Z,60.03
2018-05-23T02:49:07.331Z,60.03
2018-05-23T02:50:07.268Z,59.83
2018-05-23T02:51:07.210Z,59.93
2018-05-23T02:52:07.150Z,60.70
2018-05-23T02:53:07.088Z,60.72
2018-05-23T02:54:07.021Z,60.50
2018-05-23T02:55:06.962Z,60.41
2018-05-23T02:56:06.904Z,60.41
2018-05-23T02:57:06.844Z,60.50
2018-05-23T02:58:06.780Z,59.93
2018-05-23T02:59:06.724Z,60.50
2018-05-23T03:00:06.660Z,60.79
2018-05-23T03:01:06.601Z,60.70
2018-05-23T03:02:06.536Z,60.70
2018-05-23T03:03:06.548Z,60.63
2018-05-23T03:04:06.421Z,60.50
2018-05-23T03:05:06.365Z,60.89
2018-05-23T03:06:06.289Z,60.79
2018-05-23T03:07:06.233Z,60.60
2018-05-23T03:08:06.175Z,60.99
2018-05-23T03:09:06.108Z,60.60
2018-05-23T03:10:06.051Z,60.60
2018-05-23T03:11:05.993Z,61.46
2018-05-23T03:12:05.928Z,61.46
2018-05-23T03:13:05.867Z,61.37
2018-05-23T03:14:05.809Z,60.99
2018-05-23T03:15:05.748Z,60.79
2018-05-23T03:16:05.686Z,60.99
2018-05-23T03:17:05.622Z,61.18
2018-05-23T03:18:05.557Z,61.27
2018-05-23T03:19:05.500Z,61.56
2018-05-23T03:20:05.437Z,61.18
2018-05-23T03:21:05.383Z,61.37
2018-05-23T03:22:05.329Z,60.99
2018-05-23T03:23:05.256Z,62.04
2018-05-23T03:24:05.198Z,62.13
2018-05-23T03:25:05.139Z,62.04
2018-05-23T03:26:05.088Z,61.94
2018-05-23T03:27:05.013Z,61.94
2018-05-23T03:28:04.955Z,61.85
2018-05-23T03:29:04.891Z,62.23
2018-05-23T03:30:04.830Z,62.13
2018-05-23T03:31:04.782Z,61.85
2018-05-23T03:32:04.704Z,61.85
2018-05-23T03:33:04.649Z,61.75
2018-05-23T03:34:04.593Z,61.85
2018-05-23T03:35:04.524Z,62.04
2018-05-23T03:36:04.467Z,62.23
2018-05-23T03:37:04.405Z,62.13
2018-05-23T03:38:04.341Z,62.13
2018-05-23T03:39:04.281Z,61.94
2018-05-23T03:40:04.220Z,62.52
2018-05-23T03:41:04.159Z,62.42
2018-05-23T03:42:04.096Z,61.94
2018-05-23T03:43:04.038Z,61.94
2018-05-23T03:44:03.976Z,62.23
2018-05-23T03:45:03.916Z,62.23
2018-05-23T03:46:03.855Z,62.04
2018-05-23T03:47:03.797Z,62.33
2018-05-23T03:48:03.738Z,62.23
2018-05-23T03:49:03.672Z,62.23
2018-05-23T03:50:03.610Z,62.13
2018-05-23T03:51:03.549Z,61.94
2018-05-23T03:52:03.488Z,62.04
2018-05-23T03:53:03.426Z,61.94
2018-05-23T03:54:03.928Z,61.85
2018-05-23T03:55:03.315Z,61.94
2018-05-23T03:56:03.246Z,62.33
2018-05-23T03:57:03.186Z,62.13
2018-05-23T03:58:03.121Z,62.23
2018-05-23T03:59:03.060Z,62.13
2018-05-23T04:00:03.005Z,62.23
2018-05-23T04:01:02.941Z,62.23
2018-05-23T04:02:02.875Z,62.13
2018-05-23T04:03:02.820Z,62.04
2018-05-23T04:04:02.761Z,62.04
2018-05-23T04:05:02.702Z,62.42
2018-05-23T04:06:02.636Z,62.52
2018-05-23T04:07:02.575Z,62.42
2018-05-23T04:08:02.515Z,62.13
2018-05-23T04:09:02.455Z,62.04
2018-05-23T04:10:02.389Z,62.23
2018-05-23T04:11:02.323Z,62.52
2018-05-23T04:12:02.273Z,62.42
2018-05-23T04:13:02.207Z,62.26
2018-05-23T04:14:02.148Z,62.07
2018-05-23T04:15:02.095Z,62.07
2018-05-23T04:16:02.026Z,62.07
2018-05-23T04:17:01.974Z,62.26
2018-05-23T04:18:01.909Z,62.26
2018-05-23T04:19:01.844Z,62.07
2018-05-23T04:20:01.783Z,61.98
2018-05-23T04:21:01.726Z,62.45
2018-05-23T04:22:01.658Z,62.45
2018-05-23T04:23:01.598Z,62.23
2018-05-23T04:24:01.542Z,62.65
2018-05-23T04:25:01.588Z,62.65
2018-05-23T04:26:01.419Z,62.26
2018-05-23T04:27:01.360Z,62.45
2018-05-23T04:28:01.295Z,62.16
2018-05-23T04:29:01.236Z,62.45
2018-05-23T04:30:01.181Z,62.26
2018-05-23T04:31:01.114Z,62.16
2018-05-23T04:32:01.050Z,62.36
2018-05-23T04:33:00.995Z,62.36
2018-05-23T04:34:00.929Z,62.45
2018-05-23T04:35:00.873Z,62.36
2018-05-23T04:36:00.808Z,62.26
2018-05-23T04:37:00.742Z,62.16
2018-05-23T04:38:00.688Z,62.07
2018-05-23T04:39:00.636Z,61.98
2018-05-23T04:40:00.571Z,62.26
2018-05-23T04:41:00.510Z,62.16
2018-05-23T04:42:00.448Z,62.07
2018-05-23T04:43:00.379Z,61.88
2018-05-23T04:44:00.330Z,61.88
2018-05-23T04:45:00.260Z,61.78
2018-05-23T04:46:00.200Z,61.69
2018-05-23T04:47:00.143Z,61.78
2018-05-23T04:48:00.080Z,61.88
2018-05-23T04:49:00.023Z,62.10
2018-05-23T04:49:59.962Z,61.78
2018-05-23T04:50:59.907Z,62.19
2018-05-23T04:51:59.840Z,62.19
2018-05-23T04:52:59.780Z,61.91
2018-05-23T04:53:59.722Z,61.91
2018-05-23T04:54:59.655Z,62.19
2018-05-23T04:55:59.595Z,62.29
2018-05-23T04:56:59.534Z,62.19
2018-05-23T04:57:59.475Z,62.29
2018-05-23T04:58:59.415Z,62.23
2018-05-23T04:59:59.352Z,61.46
2018-05-23T05:00:59.295Z,60.63
2018-05-23T05:01:59.231Z,60.34
2018-05-23T05:02:59.176Z,59.05
2018-05-23T05:03:59.113Z,58.22
2018-05-23T05:04:59.052Z,57.86
2018-05-23T05:05:58.991Z,56.82
2018-05-23T05:06:58.929Z,56.05
2018-05-23T05:07:58.870Z,55.31
2018-05-23T05:08:58.813Z,54.60
2018-05-23T05:09:58.818Z,53.17
2018-05-23T05:10:58.692Z,53.11
2018-05-23T05:11:58.631Z,51.87
2018-05-23T05:12:58.573Z,51.51
2018-05-23T05:13:58.510Z,50.45
2018-05-23T05:14:58.451Z,50.55
2018-05-23T05:15:58.388Z,51.27
2018-05-23T05:16:58.336Z,53.63
2018-05-23T05:17:58.276Z,54.64
2018-05-23T05:18:58.217Z,55.65
2018-05-23T05:19:58.163Z,56.80
2018-05-23T05:20:58.097Z,57.45
2018-05-23T05:21:58.042Z,58.02
2018-05-23T05:22:57.983Z,57.70
2018-05-23T05:23:57.919Z,57.90
2018-05-23T05:24:57.883Z,58.47
2018-05-23T05:25:57.804Z,58.28
2018-05-23T05:26:57.744Z,58.45
2018-05-23T05:27:57.684Z,58.06
2018-05-23T05:28:57.627Z,58.35
2018-05-23T05:29:57.597Z,58.35
2018-05-23T05:30:57.512Z,58.64
2018-05-23T05:31:57.451Z,58.25
2018-05-23T05:32:57.395Z,58.15
2018-05-23T05:33:57.336Z,58.25
2018-05-23T05:34:57.273Z,58.64
2018-05-23T05:35:57.216Z,58.54
2018-05-23T05:36:57.159Z,58.25
2018-05-23T05:37:57.104Z,58.25
2018-05-23T05:38:57.044Z,58.25
2018-05-23T05:39:56.977Z,58.28
2018-05-23T05:40:56.919Z,58.28
2018-05-23T05:41:56.859Z,57.70
2018-05-23T05:42:56.802Z,58.09
2018-05-23T05:43:56.747Z,57.99
2018-05-23T05:44:56.684Z,58.18
2018-05-23T05:45:56.622Z,58.09
2018-05-23T05:46:56.571Z,57.51
2018-05-23T05:47:56.514Z,57.80
2018-05-23T05:48:56.446Z,57.60
2018-05-23T05:49:56.395Z,57.70
2018-05-23T05:50:56.328Z,57.90
2018-05-23T05:51:56.265Z,57.70
2018-05-23T05:52:56.207Z,57.51
2018-05-23T05:53:56.151Z,57.83
2018-05-23T05:54:56.098Z,57.25
2018-05-23T05:55:56.032Z,56.96
2018-05-23T05:56:55.978Z,56.77
2018-05-23T05:57:55.916Z,56.87
2018-05-23T05:58:55.854Z,56.38
2018-05-23T05:59:55.796Z,56.77
2018-05-23T06:00:55.738Z,56.20
2018-05-23T06:01:55.764Z,56.58
2018-05-23T06:02:55.620Z,56.77
2018-05-23T06:03:55.565Z,56.67
2018-05-23T06:04:55.507Z,56.96
2018-05-23T06:05:55.466Z,56.67
2018-05-23T06:06:55.382Z,56.67
2018-05-23T06:07:55.329Z,56.48
2018-05-23T06:08:55.272Z,56.03
2018-05-23T06:09:55.268Z,55.83
2018-05-23T06:10:55.153Z,56.48
2018-05-23T06:11:55.090Z,56.48
2018-05-23T06:12:55.031Z,56.77
2018-05-23T06:13:54.976Z,55.90
2018-05-23T06:14:54.915Z,55.52
2018-05-23T06:15:54.855Z,55.90
2018-05-23T06:16:54.799Z,55.52
2018-05-23T06:17:54.745Z,55.65
2018-05-23T06:18:54.675Z,55.83
2018-05-23T06:19:54.620Z,55.65
2018-05-23T06:20:54.561Z,55.74
2018-05-23T06:21:54.504Z,55.26
2018-05-23T06:22:54.447Z,55.45
2018-05-23T06:23:54.386Z,55.16
2018-05-23T06:24:54.327Z,54.78
2018-05-23T06:25:54.272Z,54.78
2018-05-23T06:26:54.212Z,54.87
2018-05-23T06:27:54.152Z,54.68
2018-05-23T06:28:54.098Z,54.68
2018-05-23T06:29:54.038Z,54.80
2018-05-23T06:30:53.978Z,54.71
2018-05-23T06:31:53.914Z,54.90
2018-05-23T06:32:53.861Z,54.42
2018-05-23T06:33:53.804Z,54.22
2018-05-23T06:34:53.747Z,54.03
2018-05-23T06:35:53.693Z,54.13
2018-05-23T06:36:53.650Z,53.94
2018-05-23T06:37:53.652Z,54.25
2018-05-23T06:38:53.510Z,53.67
2018-05-23T06:39:53.457Z,53.48
2018-05-23T06:40:53.397Z,53.58
2018-05-23T06:41:53.335Z,53.77
2018-05-23T06:42:53.275Z,53.67
2018-05-23T06:43:53.219Z,53.77
2018-05-23T06:44:53.162Z,53.48
2018-05-23T06:45:53.110Z,53.29
2018-05-23T06:46:53.052Z,53.39
2018-05-23T06:47:52.989Z,53.67
2018-05-23T06:48:52.932Z,53.29
2018-05-23T06:49:52.874Z,53.48
2018-05-23T06:50:52.811Z,54.06
2018-05-23T06:51:52.756Z,53.58
2018-05-23T06:52:52.699Z,53.19
2018-05-23T06:53:52.644Z,53.09
2018-05-23T06:54:52.587Z,53.09
2018-05-23T06:55:52.523Z,52.61
2018-05-23T06:56:52.466Z,52.64
2018-05-23T06:57:52.412Z,52.71
2018-05-23T06:58:52.351Z,52.55
2018-05-23T06:59:52.296Z,52.93
2018-05-23T07:00:52.243Z,52.83
2018-05-23T07:01:52.176Z,52.06
2018-05-23T07:02:52.118Z,52.16
2018-05-23T07:03:52.063Z,52.06
2018-05-23T07:04:52.005Z,52.55
2018-05-23T07:05:51.961Z,52.45
2018-05-23T07:06:51.892Z,52.25
2018-05-23T07:07:51.833Z,52.55
2018-05-23T07:08:51.777Z,52.45
2018-05-23T07:09:51.715Z,52.16
2018-05-23T07:10:51.658Z,51.77
2018-05-23T07:11:51.604Z,51.68
2018-05-23T07:12:51.545Z,51.58
2018-05-23T07:13:51.483Z,51.39
2018-05-23T07:14:51.429Z,51.80
2018-05-23T07:15:51.374Z,51.70
2018-05-23T07:16:51.313Z,51.22
2018-05-23T07:17:51.370Z,51.03
2018-05-23T07:18:51.988Z,51.70
2018-05-23T07:19:52.073Z,51.41
2018-05-23T07:20:51.200Z,51.22
2018-05-23T07:21:51.297Z,51.29
2018-05-23T07:22:51.109Z,51.29
2018-05-23T07:23:51.300Z,51.22
2018-05-23T07:24:51.176Z,51.41
2018-05-23T07:25:50.909Z,51.12
2018-05-23T07:26:51.131Z,51.32
2018-05-23T07:27:51.010Z,50.84
2018-05-23T07:28:50.646Z,50.74
2018-05-23T07:29:50.570Z,50.74
2018-05-23T07:30:50.517Z,50.64
2018-05-23T07:31:50.597Z,50.84
2018-05-23T07:32:50.412Z,50.74
2018-05-23T07:33:50.395Z,50.74
2018-05-23T07:34:50.299Z,50.93
2018-05-23T07:35:50.227Z,50.45
2018-05-23T07:36:50.177Z,50.54
2018-05-23T07:37:50.124Z,50.74
2018-05-23T07:38:50.070Z,50.54
2018-05-23T07:39:50.012Z,50.35
2018-05-23T07:40:49.943Z,50.35
2018-05-23T07:41:49.897Z,50.54
2018-05-23T07:42:49.827Z,50.45
2018-05-23T07:43:49.778Z,49.87
2018-05-23T07:44:49.743Z,50.09
2018-05-23T07:45:49.740Z,50.38
2018-05-23T07:46:49.621Z,50.38
2018-05-23T07:47:49.539Z,50.28
2018-05-23T07:48:49.478Z,49.99
2018-05-23T07:49:49.435Z,49.60
2018-05-23T07:50:49.370Z,49.60
2018-05-23T07:51:49.319Z,49.32
2018-05-23T07:52:49.257Z,49.32
2018-05-23T07:53:49.197Z,49.32
2018-05-23T07:54:49.157Z,49.22
2018-05-23T07:55:49.084Z,49.02
2018-05-23T07:56:49.025Z,48.93
2018-05-23T07:57:48.972Z,48.74
2018-05-23T07:58:48.916Z,48.83
2018-05-23T07:59:48.856Z,48.74
2018-05-23T08:00:48.801Z,48.47
2018-05-23T08:01:48.743Z,48.28
2018-05-23T08:02:48.687Z,48.18
2018-05-23T08:03:48.632Z,48.28
2018-05-23T08:04:48.576Z,48.37
2018-05-23T08:05:48.516Z,48.47
2018-05-23T08:06:48.464Z,48.57
2018-05-23T08:07:48.412Z,48.28
2018-05-23T08:08:48.357Z,48.47
2018-05-23T08:09:48.293Z,48.18
2018-05-23T08:10:48.237Z,47.89
2018-05-23T08:11:48.199Z,47.72
2018-05-23T08:12:48.122Z,47.81
2018-05-23T08:13:48.063Z,47.63
2018-05-23T08:14:48.005Z,47.72
2018-05-23T08:15:47.954Z,47.53
2018-05-23T08:16:47.897Z,47.24
2018-05-23T08:17:47.851Z,46.95
2018-05-23T08:18:47.786Z,47.43
2018-05-23T08:19:47.724Z,46.95
2018-05-23T08:20:47.732Z,47.05
2018-05-23T08:21:47.614Z,46.85
2018-05-23T08:22:47.564Z,46.75
2018-05-23T08:23:47.502Z,46.95
2018-05-23T08:24:47.444Z,46.95
2018-05-23T08:25:47.388Z,46.95
2018-05-23T08:26:47.330Z,47.24
2018-05-23T08:27:47.279Z,47.24
2018-05-23T08:28:47.220Z,46.75
2018-05-23T08:29:47.222Z,47.05
2018-05-23T08:30:47.149Z,46.66
2018-05-23T08:31:47.052Z,46.66
2018-05-23T08:32:46.994Z,46.47
2018-05-23T08:33:46.936Z,46.56
2018-05-23T08:34:46.881Z,46.27
2018-05-23T08:35:46.842Z,46.17
2018-05-23T08:36:46.771Z,46.27
2018-05-23T08:37:55.370Z,46.08
2018-05-23T08:39:41.015Z,45.79
2018-05-23T08:40:48.577Z,45.62
2018-05-23T08:42:42.884Z,45.72
2018-05-23T08:43:34.158Z,45.72
2018-05-23T08:45:28.471Z,45.91
2018-05-23T08:46:28.381Z,46.08
2018-05-23T08:48:23.195Z,46.27
2018-05-23T08:49:31.779Z,46.17
2018-05-23T08:51:17.417Z,45.52
2018-05-23T08:52:24.976Z,45.52
2018-05-23T08:54:19.269Z,45.21
2018-05-23T08:55:10.562Z,45.42
2018-05-23T08:57:03.983Z,45.52
2018-05-23T08:58:03.794Z,45.62
2018-05-23T08:59:57.122Z,45.14
2018-05-23T09:00:57.032Z,45.62
2018-05-23T09:02:51.342Z,45.33
2018-05-23T09:03:51.254Z,45.23
2018-05-23T09:05:46.166Z,45.33
2018-05-23T09:06:45.469Z,45.23
2018-05-23T09:08:39.785Z,45.42
2018-05-23T09:09:39.698Z,45.42
2018-05-23T09:11:33.026Z,45.52
2018-05-23T09:12:32.992Z,45.14
2018-05-23T09:14:27.259Z,45.14
2018-05-23T09:15:27.156Z,45.42
2018-05-23T09:17:21.453Z,45.14
2018-05-23T09:18:21.372Z,44.75
2018-05-23T09:20:15.677Z,45.04
2018-05-23T09:21:15.589Z,44.94
2018-05-23T09:23:09.902Z,44.65
2018-05-23T09:24:12.468Z,44.77
2018-05-23T09:26:03.138Z,44.67
2018-05-23T09:27:03.048Z,44.67
2018-05-23T09:28:56.415Z,44.48
2018-05-23T09:29:56.308Z,44.48
2018-05-23T09:31:50.633Z,44.29
2018-05-23T09:32:50.516Z,44.38
2018-05-23T09:34:44.839Z,44.09
2018-05-23T09:35:44.737Z,44.09
2018-05-23T09:37:39.041Z,43.80
2018-05-23T09:38:38.952Z,43.80
2018-05-23T09:40:32.269Z,43.80
2018-05-23T09:41:32.187Z,43.80
2018-05-23T09:43:25.648Z,43.32
2018-05-23T09:44:25.438Z,43.41
2018-05-23T09:46:18.935Z,42.66
2018-05-23T09:47:18.843Z,42.86
2018-05-23T09:49:13.148Z,42.66
2018-05-23T09:50:13.064Z,42.86
2018-05-23T09:52:08.351Z,42.66
2018-05-23T09:53:08.270Z,42.66
2018-05-23T09:55:01.628Z,42.37
2018-05-23T09:56:01.507Z,42.57
2018-05-23T09:57:54.828Z,42.18
2018-05-23T09:58:54.744Z,42.18
2018-05-23T09:59:54.683Z,41.89
2018-05-23T10:00:54.625Z,42.08
2018-05-23T10:01:54.568Z,41.99
2018-05-23T10:02:54.518Z,41.99
2018-05-23T10:03:54.473Z,41.50
2018-05-23T10:04:54.405Z,41.21
2018-05-23T10:05:54.347Z,41.24
2018-05-23T10:06:54.292Z,41.70
2018-05-23T10:07:54.236Z,41.91
2018-05-23T10:08:54.177Z,41.72
2018-05-23T10:09:54.129Z,41.33
2018-05-23T10:10:54.097Z,41.14
2018-05-23T10:11:54.015Z,41.14
2018-05-23T10:12:53.962Z,40.94
2018-05-23T10:13:53.905Z,41.04
2018-05-23T10:14:53.847Z,40.46
2018-05-23T10:15:53.792Z,40.56
2018-05-23T10:16:53.769Z,40.65
2018-05-23T10:17:53.682Z,40.86
2018-05-23T10:18:53.628Z,40.28
2018-05-23T10:19:53.585Z,40.09
2018-05-23T10:20:53.517Z,40.28
2018-05-23T10:21:53.465Z,40.19
2018-05-23T10:22:53.410Z,39.90
2018-05-23T10:23:53.355Z,39.51
2018-05-23T10:24:53.313Z,39.32
2018-05-23T10:25:53.250Z,39.51
2018-05-23T10:26:53.197Z,39.51
2018-05-23T10:27:53.132Z,39.32
2018-05-23T10:28:53.078Z,39.22
2018-05-23T10:29:53.019Z,39.32
2018-05-23T10:30:52.966Z,39.41
2018-05-23T10:31:52.913Z,39.22
2018-05-23T10:32:52.855Z,39.41
2018-05-23T10:33:52.804Z,38.83
2018-05-23T10:34:52.751Z,38.83
2018-05-23T10:35:52.693Z,38.56
2018-05-23T10:36:52.639Z,38.46
2018-05-23T10:37:52.590Z,38.46
2018-05-23T10:38:52.539Z,38.35
2018-05-23T10:39:52.476Z,38.25
2018-05-23T10:40:52.419Z,38.45
2018-05-23T10:41:52.373Z,38.45
2018-05-23T10:42:52.313Z,38.45
2018-05-23T10:43:52.254Z,38.35
2018-05-23T10:44:52.204Z,38.06
2018-05-23T10:45:52.151Z,38.15
2018-05-23T10:46:52.088Z,38.06
2018-05-23T10:47:52.038Z,38.15
2018-05-23T10:48:51.980Z,38.06
2018-05-23T10:49:51.945Z,37.96
2018-05-23T10:50:51.895Z,37.77
2018-05-23T10:51:51.832Z,37.96
2018-05-23T10:52:51.784Z,37.87
2018-05-23T10:53:51.712Z,37.77
2018-05-23T10:54:51.663Z,37.87
2018-05-23T10:55:51.626Z,37.94
2018-05-23T10:56:51.553Z,37.75
2018-05-23T10:57:51.487Z,38.13
2018-05-23T10:58:51.456Z,38.04
2018-05-23T10:59:51.404Z,38.13
2018-05-23T11:00:51.319Z,38.04
2018-05-23T11:01:51.266Z,38.04
2018-05-23T11:02:51.303Z,38.13
2018-05-23T11:03:51.166Z,38.13
2018-05-23T11:04:51.102Z,38.13
2018-05-23T11:05:51.112Z,38.13
2018-05-23T11:06:51.004Z,38.06
2018-05-23T11:07:50.952Z,37.87
2018-05-23T11:08:50.912Z,38.06
2018-05-23T11:09:50.846Z,38.04
2018-05-23T11:10:50.787Z,37.77
2018-05-23T11:11:50.736Z,37.96
2018-05-23T11:12:50.676Z,37.96
2018-05-23T11:13:50.633Z,37.77
2018-05-23T11:14:50.594Z,37.77
2018-05-23T11:15:50.520Z,37.67
2018-05-23T11:16:50.471Z,37.57
2018-05-23T11:17:50.419Z,37.48
2018-05-23T11:18:50.371Z,37.48
2018-05-23T11:19:50.313Z,37.19
2018-05-23T11:20:50.261Z,37.28
2018-05-23T11:21:50.228Z,37.38
2018-05-23T11:22:50.164Z,37.19
2018-05-23T11:23:50.136Z,37.19
2018-05-23T11:24:50.063Z,36.99
2018-05-23T11:25:50.008Z,36.99
2018-05-23T11:26:49.963Z,36.99
2018-05-23T11:27:49.934Z,37.09
2018-05-23T11:28:49.868Z,36.80
2018-05-23T11:29:49.893Z,36.70
2018-05-23T11:30:49.777Z,36.80
2018-05-23T11:31:49.718Z,36.60
2018-05-23T11:32:49.673Z,36.62
2018-05-23T11:33:49.622Z,36.52
2018-05-23T11:34:49.609Z,36.52
2018-05-23T11:35:49.541Z,36.43
2018-05-23T11:36:49.480Z,36.52
2018-05-23T11:37:49.438Z,36.24
2018-05-23T11:38:49.395Z,36.04
2018-05-23T11:39:49.377Z,36.24
2018-05-23T11:40:49.295Z,36.14
2018-05-23T11:41:49.265Z,36.24
2018-05-23T11:42:49.204Z,36.14
2018-05-23T11:43:49.159Z,35.75
2018-05-23T11:44:49.114Z,36.24
2018-05-23T11:45:49.069Z,35.94
2018-05-23T11:46:49.027Z,35.85
2018-05-23T11:47:48.982Z,35.38
2018-05-23T11:48:48.937Z,35.38
2018-05-23T11:49:48.894Z,35.28
2018-05-23T11:50:48.852Z,35.67
2018-05-23T11:51:48.807Z,35.19
2018-05-23T11:52:48.761Z,34.99
2018-05-23T11:53:48.715Z,34.89
2018-05-23T11:54:48.667Z,35.30
2018-05-23T11:55:48.624Z,34.72
2018-05-23T11:56:48.593Z,34.62
2018-05-23T11:57:48.542Z,34.72
2018-05-23T11:58:48.501Z,34.25
2018-05-23T11:59:48.458Z,34.33
2018-05-23T12:00:48.413Z,34.44
2018-05-23T12:01:48.375Z,34.54
2018-05-23T12:02:48.323Z,34.54
2018-05-23T12:03:48.283Z,34.54
2018-05-23T12:04:48.291Z,34.64
2018-05-23T12:05:48.197Z,34.54
2018-05-23T12:06:48.157Z,34.54
2018-05-23T12:07:48.115Z,34.43
2018-05-23T12:08:48.070Z,34.35
2018-05-23T12:09:48.028Z,34.25
2018-05-23T12:10:47.988Z,34.06
2018-05-23T12:11:47.949Z,34.06
2018-05-23T12:12:47.902Z,34.06
2018-05-23T12:13:47.861Z,33.86
2018-05-23T12:14:47.820Z,33.59
2018-05-23T12:15:47.774Z,33.47
2018-05-23T12:16:47.738Z,33.39
2018-05-23T12:17:47.688Z,33.01
2018-05-23T12:18:47.648Z,32.82
2018-05-23T12:19:47.608Z,32.64
2018-05-23T12:20:47.563Z,32.62
2018-05-23T12:21:47.522Z,32.81
2018-05-23T12:22:47.478Z,32.92
2018-05-23T12:23:47.440Z,32.64
2018-05-23T12:24:47.397Z,32.54
2018-05-23T12:25:47.359Z,32.44
2018-05-23T12:26:47.313Z,32.34
2018-05-23T12:27:47.269Z,32.34
2018-05-23T12:28:47.300Z,32.35
2018-05-23T12:29:47.188Z,32.15
2018-05-23T12:30:47.147Z,32.45
2018-05-23T12:31:47.108Z,31.87
2018-05-23T12:32:47.061Z,31.40
2018-05-23T12:33:47.024Z,30.91
2018-05-23T12:34:46.984Z,30.91
2018-05-23T12:35:46.968Z,31.21
2018-05-23T12:36:46.900Z,31.58
2018-05-23T12:37:46.857Z,31.48
2018-05-23T12:38:46.816Z,31.38
2018-05-23T12:39:46.784Z,31.38
2018-05-23T12:40:46.736Z,31.29
2018-05-23T12:41:46.697Z,31.29
2018-05-23T12:42:46.655Z,31.38
2018-05-23T12:43:46.613Z,31.19
2018-05-23T12:44:46.577Z,30.90
2018-05-23T12:45:46.531Z,30.54
2018-05-23T12:46:46.488Z,30.17
2018-05-23T12:47:46.446Z,29.89
2018-05-23T12:48:46.411Z,28.83
2018-05-23T12:49:46.390Z,28.65
2018-05-23T12:50:46.322Z,27.69
2018-05-23T12:51:46.281Z,27.70
2018-05-23T12:52:46.244Z,27.62
2018-05-23T12:53:46.209Z,27.52
2018-05-23T12:54:46.170Z,27.05
2018-05-23T12:55:46.123Z,26.56
2018-05-23T12:56:46.081Z,26.66
2018-05-23T12:57:46.040Z,26.56
2018-05-23T12:58:46.009Z,26.66
2018-05-23T12:59:45.955Z,26.09
2018-05-23T13:00:45.928Z,26.10
2018-05-23T13:01:45.876Z,25.92
2018-05-23T13:02:45.839Z,25.23
2018-05-23T13:03:45.796Z,25.34
2018-05-23T13:04:45.759Z,25.05
2018-05-23T13:05:45.734Z,24.76
2018-05-23T13:06:45.681Z,24.48
2018-05-23T13:07:45.642Z,24.47
2018-05-23T13:08:45.604Z,24.47
2018-05-23T13:09:45.567Z,24.37
2018-05-23T13:10:45.523Z,23.90
2018-05-23T13:11:45.485Z,24.09
2018-05-23T13:12:45.498Z,23.99
2018-05-23T13:13:45.432Z,24.09
2018-05-23T13:14:45.384Z,23.32
2018-05-23T13:15:45.331Z,23.13
2018-05-23T13:16:45.290Z,23.05